createdAt,value
2018-09-18T00:06:11.928Z,17.40
2018-09-18T00:08:40.425Z,17.30
2018-09-18T00:11:08.910Z,17.30
2018-09-18T00:13:37.541Z,17.20
2018-09-18T00:16:06.661Z,17.20
2018-09-18T00:18:36.122Z,17.20
2018-09-18T00:21:04.670Z,17.20
2018-09-18T00:23:34.962Z,17.20
2018-09-18T00:26:03.869Z,17.20
2018-09-18T00:28:32.450Z,17.10
2018-09-18T00:31:00.959Z,17.10
2018-09-18T00:33:29.505Z,17.10
2018-09-18T00:35:58.091Z,17.00
2018-09-18T00:38:26.545Z,17.00
2018-09-18T00:40:55.042Z,17.00
2018-09-18T00:43:23.597Z,17.00
2018-09-18T00:45:52.106Z,16.90
2018-09-18T00:48:20.964Z,17.00
2018-09-18T00:50:49.820Z,17.00
2018-09-18T00:53:18.312Z,16.90
2018-09-18T00:55:47.298Z,16.90
2018-09-18T00:58:17.393Z,16.90
2018-09-18T01:00:45.905Z,16.80
2018-09-18T01:08:12.955Z,16.70
2018-09-18T01:10:41.534Z,16.60
2018-09-18T01:13:10.077Z,16.50
2018-09-18T01:15:38.892Z,16.50
2018-09-18T01:18:07.455Z,16.50
2018-09-18T01:20:35.949Z,16.50
2018-09-18T01:23:04.467Z,16.50
2018-09-18T01:25:32.997Z,16.50
2018-09-18T01:28:01.530Z,16.50
2018-09-18T01:30:30.543Z,16.50
2018-09-18T01:32:59.061Z,16.40
2018-09-18T01:35:27.532Z,16.50
2018-09-18T01:37:56.038Z,16.50
2018-09-18T01:40:24.534Z,16.50
2018-09-18T01:42:53.002Z,16.40
2018-09-18T01:45:21.502Z,16.40
2018-09-18T01:47:49.973Z,16.40
2018-09-18T01:50:18.460Z,16.40
2018-09-18T01:52:47.569Z,16.40
2018-09-18T01:55:17.350Z,16.40
2018-09-18T01:57:45.840Z,16.40
2018-09-18T02:05:10.830Z,16.30
2018-09-18T02:07:39.312Z,16.20
2018-09-18T02:10:07.782Z,16.20
2018-09-18T02:12:36.781Z,16.10
2018-09-18T02:15:05.410Z,16.10
2018-09-18T02:17:33.921Z,16.10
2018-09-18T02:20:02.439Z,16.00
2018-09-18T02:22:30.912Z,15.90
2018-09-18T02:24:59.402Z,15.80
2018-09-18T02:27:27.941Z,15.80
2018-09-18T02:29:56.834Z,15.80
2018-09-18T02:32:25.350Z,15.80
2018-09-18T02:34:57.243Z,15.80
2018-09-18T02:37:27.020Z,15.80
2018-09-18T02:39:58.053Z,15.80
2018-09-18T02:42:28.535Z,15.80
2018-09-18T02:44:57.084Z,15.80
2018-09-18T02:47:26.046Z,15.70
2018-09-18T02:49:54.514Z,15.70
2018-09-18T02:52:22.986Z,15.70
2018-09-18T02:54:51.603Z,15.70
2018-09-18T02:57:20.081Z,15.80
2018-09-18T02:59:48.617Z,15.80
2018-09-18T03:07:23.041Z,15.80
2018-09-18T03:09:52.043Z,15.70
2018-09-18T03:12:20.861Z,15.70
2018-09-18T03:14:49.961Z,15.50
2018-09-18T03:17:18.462Z,15.50
2018-09-18T03:19:47.002Z,15.50
2018-09-18T03:27:10.525Z,15.40
2018-09-18T03:29:39.429Z,15.40
2018-09-18T03:32:07.931Z,15.40
2018-09-18T03:34:36.933Z,15.40
2018-09-18T03:37:05.442Z,15.40
2018-09-18T03:39:34.132Z,15.50
2018-09-18T03:42:02.894Z,15.60
2018-09-18T03:44:31.386Z,15.60
2018-09-18T03:46:59.880Z,15.60
2018-09-18T03:49:28.602Z,15.60
2018-09-18T03:51:58.050Z,15.60
2018-09-18T03:54:26.997Z,15.50
2018-09-18T03:56:56.177Z,15.50
2018-09-18T03:59:24.702Z,15.40
2018-09-18T04:01:53.214Z,15.40
2018-09-18T04:04:21.726Z,15.40
2018-09-18T04:06:52.214Z,15.40
2018-09-18T04:09:21.414Z,15.40
2018-09-18T04:11:50.306Z,15.40
2018-09-18T04:14:18.773Z,15.40
2018-09-18T04:16:48.066Z,15.50
2018-09-18T04:19:18.152Z,15.40
2018-09-18T04:21:47.161Z,15.40
2018-09-18T04:24:17.430Z,15.30
2018-09-18T04:26:45.975Z,15.40
2018-09-18T04:34:16.514Z,15.40
2018-09-18T04:36:45.521Z,15.30
2018-09-18T04:44:11.055Z,15.20
2018-09-18T04:46:39.526Z,15.10
2018-09-18T04:49:08.106Z,15.20
2018-09-18T04:51:36.681Z,15.20
2018-09-18T04:54:05.591Z,15.20
2018-09-18T04:56:34.355Z,15.20
2018-09-18T04:59:02.906Z,15.30
2018-09-18T05:01:31.409Z,15.30
2018-09-18T05:03:59.925Z,15.30
2018-09-18T05:06:28.461Z,15.30
2018-09-18T05:08:58.214Z,15.30
2018-09-18T05:11:27.558Z,15.40
2018-09-18T05:13:56.116Z,15.40
2018-09-18T05:16:24.573Z,15.40
2018-09-18T05:18:54.267Z,15.40
2018-09-18T05:21:22.774Z,15.40
2018-09-18T05:23:51.288Z,15.50
2018-09-18T05:26:19.745Z,15.60
2018-09-18T05:28:49.723Z,15.60
2018-09-18T05:31:18.210Z,15.70
2018-09-18T05:33:46.800Z,15.70
2018-09-18T05:41:10.977Z,15.70
2018-09-18T05:43:39.458Z,15.80
2018-09-18T05:46:07.946Z,15.90
2018-09-18T05:48:36.952Z,15.90
2018-09-18T05:51:05.455Z,15.90
2018-09-18T05:53:33.962Z,16.00
2018-09-18T05:56:02.504Z,16.00
2018-09-18T05:58:31.027Z,16.10
2018-09-18T06:00:59.521Z,16.20
2018-09-18T06:03:28.041Z,16.30
2018-09-18T06:05:56.506Z,16.40
2018-09-18T06:08:24.966Z,16.50
2018-09-18T06:10:53.961Z,16.60
2018-09-18T06:13:23.062Z,16.70
2018-09-18T06:15:51.570Z,16.80
2018-09-18T06:18:20.155Z,16.80
2018-09-18T06:20:48.622Z,16.90
2018-09-18T06:23:17.383Z,17.00
2018-09-18T06:25:45.874Z,17.20
2018-09-18T06:33:13.497Z,17.30
2018-09-18T06:35:41.986Z,17.40
2018-09-18T06:38:10.489Z,17.50
2018-09-18T06:40:38.996Z,17.60
2018-09-18T06:43:07.497Z,17.70
2018-09-18T06:45:35.979Z,17.70
2018-09-18T06:48:04.549Z,17.80
2018-09-18T06:50:33.002Z,17.90
2018-09-18T06:53:01.481Z,18.00
2018-09-18T06:55:31.127Z,18.30
2018-09-18T06:58:00.029Z,18.60
2018-09-18T07:00:28.517Z,19.30
2018-09-18T07:02:57.023Z,20.70
2018-09-18T07:05:25.496Z,22.30
2018-09-18T07:07:53.950Z,23.70
2018-09-18T07:10:22.486Z,24.50
2018-09-18T07:12:50.962Z,25.40
2018-09-18T07:15:20.497Z,25.70
2018-09-18T07:17:49.556Z,27.20
2018-09-18T07:20:18.063Z,28.50
2018-09-18T07:22:46.530Z,28.10
2018-09-18T07:30:15.362Z,30.10
2018-09-18T07:32:43.843Z,30.70
2018-09-18T07:35:12.350Z,31.40
2018-09-18T07:37:41.082Z,32.60
2018-09-18T07:40:09.597Z,33.20
2018-09-18T07:42:38.215Z,33.90
2018-09-18T07:45:06.785Z,34.30
2018-09-18T07:47:35.422Z,34.30
2018-09-18T07:50:03.953Z,34.40
2018-09-18T07:52:32.481Z,34.40
2018-09-18T07:55:00.954Z,35.10
2018-09-18T07:57:29.595Z,35.90
2018-09-18T07:59:58.709Z,36.50
2018-09-18T08:02:27.540Z,36.50
2018-09-18T08:04:56.030Z,36.70
2018-09-18T08:07:24.548Z,37.30
2018-09-18T08:12:21.246Z,38.00
2018-09-18T08:14:49.750Z,38.40
2018-09-18T08:17:18.910Z,37.20
2018-09-18T08:19:47.645Z,37.50
2018-09-18T08:27:11.833Z,38.90
2018-09-18T08:29:40.559Z,39.00
2018-09-18T08:32:09.059Z,39.40
2018-09-18T08:34:37.622Z,39.80
2018-09-18T08:37:06.146Z,40.20
2018-09-18T08:39:34.625Z,40.00
2018-09-18T08:42:03.128Z,40.20
2018-09-18T08:44:31.613Z,40.20
2018-09-18T08:47:00.142Z,40.50
2018-09-18T08:49:29.234Z,40.00
2018-09-18T08:51:57.820Z,39.60
2018-09-18T08:54:26.275Z,39.50
2018-09-18T08:56:54.786Z,39.40
2018-09-18T08:59:23.278Z,39.70
2018-09-18T09:01:51.809Z,40.00
2018-09-18T09:04:20.353Z,40.40
2018-09-18T09:06:48.832Z,40.30
2018-09-18T09:09:17.393Z,39.90
2018-09-18T09:11:47.529Z,40.10
2018-09-18T09:19:13.014Z,39.80
2018-09-18T09:21:41.494Z,39.60
2018-09-18T09:24:10.003Z,40.10
2018-09-18T09:26:38.612Z,40.60
2018-09-18T09:29:07.037Z,40.60
2018-09-18T09:31:35.775Z,40.90
2018-09-18T09:34:04.681Z,41.00
2018-09-18T09:36:33.271Z,41.30
2018-09-18T09:39:01.765Z,41.80
2018-09-18T09:41:30.303Z,41.30
2018-09-18T09:43:59.125Z,40.60
2018-09-18T09:46:27.587Z,40.50
2018-09-18T09:48:56.394Z,41.10
2018-09-18T09:51:24.966Z,41.80
2018-09-18T09:53:53.392Z,41.50
2018-09-18T09:56:23.014Z,41.20
2018-09-18T09:58:51.494Z,41.70
2018-09-18T10:01:25.373Z,40.80
2018-09-18T10:03:54.030Z,39.60
2018-09-18T10:06:22.808Z,38.40
2018-09-18T10:08:51.312Z,37.00
2018-09-18T10:11:19.799Z,35.30
2018-09-18T10:13:48.305Z,34.70
2018-09-18T10:16:18.060Z,33.60
2018-09-18T10:18:47.546Z,32.90
2018-09-18T10:21:18.017Z,32.30
2018-09-18T10:23:46.562Z,31.70
2018-09-18T10:31:10.997Z,30.70
2018-09-18T10:33:39.524Z,30.10
2018-09-18T10:36:08.004Z,29.60
2018-09-18T10:38:37.047Z,29.60
2018-09-18T10:41:05.672Z,29.40
2018-09-18T10:43:34.076Z,29.10
2018-09-18T10:46:03.097Z,28.80
2018-09-18T10:48:35.219Z,28.80
2018-09-18T10:51:03.695Z,28.70
2018-09-18T10:53:32.202Z,28.70
2018-09-18T10:56:00.672Z,28.40
2018-09-18T10:58:29.142Z,28.30
2018-09-18T11:00:58.280Z,28.40
2018-09-18T11:03:26.796Z,28.40
2018-09-18T11:05:55.299Z,28.40
2018-09-18T11:08:23.909Z,28.50
2018-09-18T11:10:52.402Z,28.40
2018-09-18T11:13:20.937Z,28.40
2018-09-18T11:15:50.049Z,28.50
2018-09-18T11:18:18.594Z,28.50
2018-09-18T11:20:47.169Z,28.50
2018-09-18T11:23:18.426Z,28.50
2018-09-18T11:25:48.111Z,28.70
2018-09-18T11:28:17.421Z,28.80
2018-09-18T11:30:45.955Z,28.90
2018-09-18T11:38:10.118Z,28.70
2018-09-18T11:40:38.603Z,28.70
2018-09-18T11:43:07.473Z,28.70
2018-09-18T11:45:36.581Z,28.60
2018-09-18T11:48:05.023Z,28.60
2018-09-18T11:50:33.607Z,28.50
2018-09-18T11:53:02.946Z,28.60
2018-09-18T11:55:31.530Z,28.60
2018-09-18T11:58:00.010Z,28.80
2018-09-18T12:00:28.625Z,28.70
2018-09-18T12:02:58.056Z,28.70
2018-09-18T12:05:26.605Z,28.90
2018-09-18T12:07:56.007Z,28.80
2018-09-18T12:10:24.503Z,28.80
2018-09-18T12:12:55.208Z,28.70
2018-09-18T12:15:23.710Z,28.80
2018-09-18T12:17:52.229Z,28.70
2018-09-18T12:20:20.749Z,28.70
2018-09-18T12:22:49.347Z,28.60
2018-09-18T12:25:19.602Z,28.70
2018-09-18T12:27:48.811Z,28.60
2018-09-18T12:30:17.485Z,28.70
2018-09-18T12:32:46.716Z,28.80
2018-09-18T12:40:14.817Z,28.60
2018-09-18T12:42:43.579Z,28.70
2018-09-18T12:45:12.171Z,28.70
2018-09-18T12:47:41.202Z,28.80
2018-09-18T12:50:09.982Z,28.90
2018-09-18T12:52:38.928Z,28.90
2018-09-18T12:55:08.708Z,28.80
2018-09-18T12:57:38.121Z,28.80
2018-09-18T13:00:07.004Z,28.80
2018-09-18T13:02:35.493Z,28.70
2018-09-18T13:05:05.100Z,28.70
2018-09-18T13:07:34.196Z,28.60
2018-09-18T13:10:04.323Z,28.70
2018-09-18T13:12:33.583Z,28.70
2018-09-18T13:15:02.323Z,28.70
2018-09-18T13:17:30.904Z,28.50
2018-09-18T13:19:59.451Z,28.50
2018-09-18T13:22:27.946Z,28.60
2018-09-18T13:24:56.470Z,28.50
2018-09-18T13:27:25.759Z,28.50
2018-09-18T13:29:54.251Z,28.60
2018-09-18T13:32:23.121Z,28.60
2018-09-18T13:34:51.604Z,28.70
2018-09-18T13:37:21.364Z,28.80
2018-09-18T13:39:49.996Z,28.90
2018-09-18T13:42:18.485Z,29.00
2018-09-18T13:44:47.335Z,29.10
2018-09-18T13:47:17.457Z,29.10
2018-09-18T13:49:46.221Z,29.10
2018-09-18T13:52:14.707Z,28.90
2018-09-18T13:54:43.395Z,28.80
2018-09-18T13:57:11.886Z,28.90
2018-09-18T13:59:40.428Z,28.80
2018-09-18T14:02:09.010Z,28.80
2018-09-18T14:04:37.477Z,28.70
2018-09-18T14:07:05.929Z,28.70
2018-09-18T14:09:34.510Z,28.60
2018-09-18T14:12:02.962Z,28.70
2018-09-18T14:14:31.453Z,28.80
2018-09-18T14:17:00.294Z,28.80
2018-09-18T14:19:29.060Z,28.70
2018-09-18T14:21:57.538Z,28.80
2018-09-18T14:24:26.082Z,28.80
2018-09-18T14:26:54.582Z,28.80
2018-09-18T14:29:23.990Z,28.80
2018-09-18T14:31:52.505Z,28.90
2018-09-18T14:34:21.023Z,28.90
2018-09-18T14:36:49.631Z,28.90
2018-09-18T14:39:18.649Z,29.00
2018-09-18T14:41:47.121Z,29.00
2018-09-18T14:44:17.610Z,29.00
2018-09-18T14:46:46.123Z,29.00
2018-09-18T14:54:14.387Z,29.00
2018-09-18T14:56:42.919Z,29.00
2018-09-18T14:59:11.471Z,28.90
2018-09-18T15:01:40.837Z,28.80
2018-09-18T15:04:09.362Z,28.60
2018-09-18T15:06:37.848Z,28.40
2018-09-18T15:09:09.022Z,28.40
2018-09-18T15:11:37.505Z,28.40
2018-09-18T15:14:06.095Z,28.30
2018-09-18T15:16:34.702Z,28.30
2018-09-18T15:19:03.207Z,28.40
2018-09-18T15:21:31.732Z,28.40
2018-09-18T15:24:00.944Z,28.50
2018-09-18T15:26:29.473Z,28.40
2018-09-18T15:28:57.989Z,28.30
2018-09-18T15:31:26.986Z,28.20
2018-09-18T15:33:55.557Z,28.10
2018-09-18T15:36:24.078Z,28.00
2018-09-18T15:38:52.725Z,27.80
2018-09-18T15:41:21.218Z,27.70
2018-09-18T15:43:49.742Z,27.60
2018-09-18T15:46:18.362Z,27.50
2018-09-18T15:48:46.921Z,27.40
2018-09-18T15:56:16.170Z,27.10
2018-09-18T15:58:44.727Z,26.80
2018-09-18T16:01:13.272Z,26.60
2018-09-18T16:03:42.273Z,26.50
2018-09-18T16:06:10.834Z,26.40
2018-09-18T16:08:39.317Z,26.30
2018-09-18T16:11:08.511Z,26.30
2018-09-18T16:13:37.494Z,26.20
2018-09-18T16:16:06.037Z,26.20
2018-09-18T16:18:34.538Z,26.20
2018-09-18T16:21:03.062Z,26.10
2018-09-18T16:23:31.593Z,26.10
2018-09-18T16:26:00.154Z,26.10
2018-09-18T16:28:28.678Z,26.00
2018-09-18T16:30:58.845Z,26.00
2018-09-18T16:33:27.966Z,26.00
2018-09-18T16:35:56.497Z,25.90
2018-09-18T16:38:25.006Z,25.90
2018-09-18T16:40:53.517Z,25.80
2018-09-18T16:43:22.099Z,25.70
2018-09-18T16:45:50.700Z,25.60
2018-09-18T16:48:19.547Z,25.50
2018-09-18T16:50:48.034Z,25.40
2018-09-18T16:53:17.782Z,25.30
2018-09-18T16:55:46.669Z,25.20
2018-09-18T17:03:08.999Z,25.10
2018-09-18T17:05:37.508Z,24.60
2018-09-18T17:08:06.227Z,24.40
2018-09-18T17:10:34.877Z,24.20
2018-09-18T17:13:03.362Z,24.10
2018-09-18T17:15:31.852Z,23.90
2018-09-18T17:18:00.501Z,23.80
2018-09-18T17:20:29.006Z,23.60
2018-09-18T17:22:58.075Z,23.40
2018-09-18T17:25:26.678Z,23.00
2018-09-18T17:27:55.193Z,22.80
2018-09-18T17:30:23.723Z,22.60
2018-09-18T17:32:52.255Z,22.20
2018-09-18T17:35:21.269Z,22.10
2018-09-18T17:37:49.857Z,22.00
2018-09-18T17:40:18.432Z,21.90
2018-09-18T17:42:46.906Z,21.60
2018-09-18T17:50:10.142Z,21.40
2018-09-18T17:52:38.675Z,21.20
2018-09-18T17:55:07.489Z,21.10
2018-09-18T17:57:36.252Z,21.10
2018-09-18T18:00:05.374Z,21.00
2018-09-18T18:02:33.905Z,21.00
2018-09-18T18:05:02.426Z,21.00
2018-09-18T18:07:31.445Z,20.90
2018-09-18T18:10:00.296Z,20.90
2018-09-18T18:12:28.874Z,20.80
2018-09-18T18:14:57.385Z,20.80
2018-09-18T18:17:26.072Z,20.80
2018-09-18T18:19:55.307Z,20.70
2018-09-18T18:22:23.969Z,20.60
2018-09-18T18:24:53.517Z,20.70
2018-09-18T18:27:23.054Z,20.70
2018-09-18T18:29:51.559Z,20.70
2018-09-18T18:32:21.111Z,20.60
2018-09-18T18:34:50.470Z,20.60
2018-09-18T18:37:20.485Z,20.60
2018-09-18T18:39:49.020Z,20.50
2018-09-18T18:42:17.578Z,20.30
2018-09-18T18:44:46.191Z,20.20
2018-09-18T18:52:15.573Z,20.00
2018-09-18T18:54:44.437Z,19.80
2018-09-18T18:57:12.963Z,19.70
2018-09-18T18:59:41.606Z,19.60
2018-09-18T19:02:10.155Z,19.40
2018-09-18T19:04:39.442Z,19.30
2018-09-18T19:07:08.699Z,19.30
2018-09-18T19:09:37.313Z,19.20
2018-09-18T19:12:06.037Z,19.00
2018-09-18T19:14:35.022Z,18.90
2018-09-18T19:17:03.522Z,18.80
2018-09-18T19:19:32.030Z,18.80
2018-09-18T19:22:00.550Z,18.80
2018-09-18T19:24:29.066Z,18.70
2018-09-18T19:26:57.915Z,18.70
2018-09-18T19:29:26.601Z,18.80
2018-09-18T19:31:55.092Z,18.80
2018-09-18T19:34:23.614Z,19.00
2018-09-18T19:36:52.602Z,19.10
2018-09-18T19:39:21.835Z,19.20
2018-09-18T19:41:50.322Z,19.20
2018-09-18T19:44:18.894Z,19.20
2018-09-18T19:46:47.654Z,19.10
2018-09-18T19:49:17.418Z,19.10
2018-09-18T19:51:46.884Z,19.10
2018-09-18T19:59:14.054Z,18.90
2018-09-18T20:01:42.633Z,18.70
2018-09-18T20:04:11.239Z,18.60
2018-09-18T20:06:40.608Z,18.30
2018-09-18T20:09:10.659Z,18.30
2018-09-18T20:11:39.387Z,18.40
2018-09-18T20:14:09.398Z,18.10
2018-09-18T20:16:37.882Z,18.10
2018-09-18T20:19:07.763Z,18.10
2018-09-18T20:21:37.595Z,18.10
2018-09-18T20:24:06.382Z,18.30
2018-09-18T20:26:35.025Z,18.20
2018-09-18T20:29:03.784Z,18.30
2018-09-18T20:31:32.315Z,18.30
2018-09-18T20:34:01.184Z,18.30
2018-09-18T20:36:30.019Z,18.10
2018-09-18T20:38:58.547Z,18.10
2018-09-18T20:41:28.516Z,18.10
2018-09-18T20:43:57.110Z,18.10
2018-09-18T20:46:26.455Z,18.00
2018-09-18T20:48:55.162Z,17.80
2018-09-18T20:51:23.745Z,17.70
2018-09-18T20:53:52.331Z,17.70
2018-09-18T20:56:21.013Z,17.60
2018-09-18T20:58:49.928Z,17.60
2018-09-18T21:01:19.057Z,17.60
2018-09-18T21:03:47.961Z,17.60
2018-09-18T21:06:17.815Z,17.60
2018-09-18T21:08:46.335Z,17.60
2018-09-18T21:16:11.077Z,17.80
2018-09-18T21:18:39.572Z,17.80
2018-09-18T21:21:08.180Z,17.80
2018-09-18T21:23:37.271Z,17.90
2018-09-18T21:26:14.273Z,17.90
2018-09-18T21:28:42.782Z,17.90
2018-09-18T21:31:11.287Z,18.00
2018-09-18T21:33:39.810Z,18.10
2018-09-18T21:36:08.322Z,18.10
2018-09-18T21:38:37.000Z,18.00
2018-09-18T21:41:05.494Z,18.00
2018-09-18T21:43:34.873Z,17.90
2018-09-18T21:46:03.407Z,18.00
2018-09-18T21:48:31.883Z,17.90
2018-09-18T21:51:00.499Z,18.00
2018-09-18T21:53:28.987Z,17.90
2018-09-18T21:55:57.497Z,18.00
2018-09-18T21:58:26.066Z,17.90
2018-09-18T22:00:54.566Z,17.90
2018-09-18T22:03:23.070Z,17.90
2018-09-18T22:05:52.010Z,17.90
2018-09-18T22:08:20.487Z,17.90
2018-09-18T22:10:48.965Z,17.90
2018-09-18T22:13:17.494Z,17.90
2018-09-18T22:15:45.988Z,17.90
2018-09-18T22:23:14.334Z,17.80
2018-09-18T22:25:42.817Z,17.50
2018-09-18T22:28:11.284Z,17.50
2018-09-18T22:30:39.816Z,17.50
2018-09-18T22:33:08.323Z,17.60
2018-09-18T22:35:36.785Z,17.60
2018-09-18T22:38:05.640Z,17.60
2018-09-18T22:40:34.125Z,17.70
2018-09-18T22:43:02.671Z,17.60
2018-09-18T22:45:31.819Z,17.70
2018-09-18T22:48:00.434Z,17.60
2018-09-18T22:50:28.925Z,17.70
2018-09-18T22:52:57.459Z,17.70
2018-09-18T22:55:26.044Z,17.80
2018-09-18T22:57:54.547Z,17.80
2018-09-18T23:00:23.082Z,18.00
2018-09-18T23:02:51.586Z,18.00
2018-09-18T23:05:20.149Z,18.00
2018-09-18T23:07:49.195Z,18.00
2018-09-18T23:10:17.673Z,18.00
2018-09-18T23:12:46.158Z,17.90
2018-09-18T23:20:13.946Z,17.80
2018-09-18T23:22:42.493Z,17.50
2018-09-18T23:25:11.017Z,17.40
2018-09-18T23:27:39.575Z,17.30
2018-09-18T23:30:08.087Z,17.30
2018-09-18T23:32:36.553Z,17.30
2018-09-18T23:35:05.087Z,17.30
2018-09-18T23:37:33.559Z,17.30
2018-09-18T23:40:02.090Z,17.20
2018-09-18T23:42:30.621Z,17.10
2018-09-18T23:44:59.139Z,17.00
2018-09-18T23:47:28.359Z,17.00
2018-09-18T23:49:57.263Z,17.00
2018-09-18T23:52:25.829Z,17.00
2018-09-18T23:54:54.342Z,16.90
2018-09-18T23:57:23.104Z,16.90
2018-09-18T23:59:51.612Z,17.00
